»·PEaware :: N373EB KWHP-KSMX

N373EB :: KWHP-KSMX

FLIGHT INFORMATION

Flight Status: Arrived
Operator: Privately registered:
United States
More flights under this callsign
Pilot: Peder R. (40111)
Aircraft: BEECH AIRCRAFT DEBONAIR BONANZA
(BE33)
More flights by this aircraft type
Origin: KWHP Whiteman
United States
Destination: KSMX Santa Maria Pub/Capt Hancock
United States
More flights between these airports :: More routes between these airports
Route: WHP1 VNY V597 RZS V12 GVO V27 ORCUT WINCH
File this flight plan on PilotEdge
Remarks:
Altitude:
(Current/Filed)
8,000ft
Speed:
(Current/Filed)
155kts
Departed: 21-Sep-23 07:20 AM
Arrived: 21-Sep-23 08:27 AM
Distance/Time
Traveled:
107nm/1:07
Distance/Time
To Go:
Arrived

Flight Plot

Page will automatically refresh every two minutes.

Flight plan parsing failed; only flown route is shown


Map Options




Map Legend


Flown Route
Filed Route
Departure Airport
Arrival Airport
Navaid (VOR, NDB)
Fix

Horizontal Profiles

Position Reports

Time Latitude Longitude Heading Altitude Ground
Speed
21-Sep-23 07:03 34.259891 -118.412831 317 994ft 0kts
21-Sep-23 07:04 34.259891 -118.412831 317 994ft 0kts
21-Sep-23 07:05 34.259891 -118.412831 317 994ft 0kts
21-Sep-23 07:06 34.259891 -118.412831 317 994ft 0kts
21-Sep-23 07:07 34.259891 -118.412831 317 994ft 0kts
21-Sep-23 07:08 34.259894 -118.412834 317 994ft 0kts
21-Sep-23 07:09 34.258909 -118.412390 139 988ft 13kts
21-Sep-23 07:10 34.256910 -118.410018 160 976ft 0kts
21-Sep-23 07:11 34.256910 -118.410018 160 976ft 0kts
21-Sep-23 07:12 34.256910 -118.410018 160 976ft 0kts
21-Sep-23 07:15 34.256909 -118.410018 160 976ft 0kts
21-Sep-23 07:16 34.256910 -118.410018 160 976ft 0kts
21-Sep-23 07:17 34.255701 -118.408994 139 970ft 0kts
21-Sep-23 07:18 34.255441 -118.409371 319 970ft 15kts
21-Sep-23 07:19 34.272686 -118.427141 313 1501ft 103kts
21-Sep-23 07:20 34.278580 -118.460504 274 2402ft 103kts
21-Sep-23 07:21 34.283179 -118.497409 273 3100ft 117kts
21-Sep-23 07:22 34.301044 -118.526748 348 3976ft 116kts
21-Sep-23 07:23 34.333827 -118.537648 337 4772ft 122kts
21-Sep-23 07:24 34.336590 -118.570932 198 5503ft 112kts
21-Sep-23 07:25 34.308432 -118.566686 208 6040ft 131kts
21-Sep-23 07:26 34.308272 -118.609953 282 6193ft 160kts
21-Sep-23 07:27 34.313606 -118.658073 272 6178ft 175kts
21-Sep-23 07:28 34.324619 -118.709776 282 6102ft 180kts
21-Sep-23 07:29 34.333114 -118.761405 284 7108ft 123kts
21-Sep-23 07:30 34.341582 -118.805312 286 7728ft 128kts
21-Sep-23 07:31 34.350465 -118.849722 287 8046ft 150kts
21-Sep-23 07:32 34.360996 -118.903365 288 7966ft 171kts
21-Sep-23 07:33 34.370164 -118.959527 280 8008ft 170kts
21-Sep-23 07:34 34.379733 -119.015170 286 7991ft 167kts
21-Sep-23 07:35 34.389859 -119.070185 284 7985ft 166kts
21-Sep-23 07:36 34.399122 -119.125345 285 7977ft 165kts
21-Sep-23 07:37 34.408634 -119.180005 288 7972ft 164kts
21-Sep-23 07:38 34.417241 -119.234482 285 7972ft 163kts
21-Sep-23 07:39 34.426482 -119.288361 283 7967ft 163kts
21-Sep-23 07:40 34.436035 -119.342253 287 7962ft 162kts
21-Sep-23 07:41 34.445433 -119.396298 287 7961ft 163kts
21-Sep-23 07:42 34.455243 -119.450601 290 7961ft 163kts
21-Sep-23 07:43 34.464825 -119.505465 285 7960ft 165kts
21-Sep-23 07:44 34.474695 -119.560276 285 7989ft 165kts
21-Sep-23 07:45 34.483218 -119.615240 284 8012ft 165kts
21-Sep-23 07:46 34.492828 -119.670374 284 8014ft 165kts
21-Sep-23 07:47 34.502009 -119.725376 284 8004ft 166kts
21-Sep-23 07:48 34.511164 -119.781011 284 8005ft 165kts
21-Sep-23 07:49 34.513946 -119.837687 273 8007ft 167kts
21-Sep-23 07:50 34.517331 -119.894124 277 8021ft 166kts
21-Sep-23 07:51 34.523041 -119.950525 277 8033ft 166kts
21-Sep-23 07:52 34.526396 -120.007156 275 8050ft 166kts
21-Sep-23 07:53 34.528998 -120.063958 274 8061ft 166kts
21-Sep-23 07:54 34.547597 -120.111725 322 8035ft 155kts
21-Sep-23 07:55 34.583814 -120.142681 326 7440ft 158kts
21-Sep-23 07:56 34.619259 -120.174087 326 6875ft 155kts
21-Sep-23 07:57 34.653997 -120.205253 325 6351ft 153kts
21-Sep-23 07:58 34.682275 -120.229829 322 6099ft 155kts
21-Sep-23 07:59 34.711918 -120.257110 317 6113ft 142kts
21-Sep-23 08:00 34.745692 -120.288433 321 6017ft 141kts
21-Sep-23 08:01 34.774480 -120.315005 320 5974ft 139kts
21-Sep-23 08:02 34.805105 -120.343488 321 5980ft 137kts
21-Sep-23 08:04 34.835168 -120.371907 320 5984ft 137kts
21-Sep-23 08:05 34.862822 -120.399710 324 5979ft 138kts
21-Sep-23 08:06 34.886982 -120.430062 310 5668ft 138kts
21-Sep-23 08:07 34.913506 -120.465691 308 5307ft 136kts
21-Sep-23 08:08 34.938847 -120.499586 310 4982ft 133kts
21-Sep-23 08:09 34.963833 -120.533236 310 4674ft 131kts
21-Sep-23 08:10 34.988272 -120.566189 319 4383ft 129kts
21-Sep-23 08:11 35.013765 -120.596701 315 4087ft 127kts
21-Sep-23 08:12 35.040177 -120.625346 320 3789ft 125kts
21-Sep-23 08:13 35.066360 -120.653186 316 3506ft 123kts
21-Sep-23 08:14 35.095574 -120.672287 345 3388ft 111kts
21-Sep-23 08:15 35.118177 -120.691728 263 3322ft 111kts
21-Sep-23 08:16 35.095215 -120.694313 129 3319ft 106kts
21-Sep-23 08:17 35.075225 -120.667074 129 3340ft 106kts
21-Sep-23 08:18 35.055600 -120.639387 127 3189ft 107kts
21-Sep-23 08:19 35.035967 -120.612269 131 2930ft 106kts
21-Sep-23 08:20 35.015302 -120.586942 131 2675ft 104kts
21-Sep-23 08:21 34.993770 -120.563225 139 2398ft 104kts
21-Sep-23 08:22 34.973576 -120.537908 136 1938ft 107kts
21-Sep-23 08:23 34.952215 -120.514917 140 1570ft 102kts
21-Sep-23 08:24 34.933805 -120.494813 133 1225ft 85kts
21-Sep-23 08:25 34.918587 -120.476602 136 714ft 70kts
21-Sep-23 08:26 34.905500 -120.460953 131 265ft 45kts
21-Sep-23 08:27 34.903349 -120.456811 48 264ft 0kts
21-Sep-23 08:28 34.903542 -120.456593 51 264ft 8kts
21-Sep-23 08:29 34.901456 -120.453749 135 264ft 16kts
21-Sep-23 08:30 34.897920 -120.449501 134 264ft 18kts
21-Sep-23 08:31 34.896687 -120.446723 135 264ft 10kts
21-Sep-23 08:32 34.896262 -120.445353 318 264ft 2kts

Navigation Log

Ident Type
Flight plan parsing failed, navigation log unavailable